Terminal Aerodrome Forecast
Issued by NWS Atlanta, GA

Home | Current Version | Previous Version | Text Only | Print | Product List | Glossary On
Versions: 1 2 3 4 5 6 7 8 9 10 11 12 13 14 15 16 17 18 19 20 21 22 23 24 25 26 27 28 29 30 31 32 33 34 35 36
514
FTUS42 KFFC 162141 AAA
TAFATL
TAF AMD
KATL 162141Z 1622/1724 28003KT P6SM BKN250
     FM171000 13004KT P6SM SCT080 SCT150 BKN250
     FM171500 15006KT P6SM SCT040 BKN080
     FM171800 14006KT P6SM BKN035 BKN080 PROB30 1719/1723 5SM -SHRA
      OVC020=

USA.gov is the U.S. government's official web portal to all federal, state and local government web resources and services.